Skip Navigation Links Skip Navigation Links

Current Weather

Auckland, Sydney, Australia

For information only: do not use for flight planning or navigation.
Latest weather
Observation time Saturday, January 25, 2020 8:30 PM AEDT
Local time Saturday, January 25, 2020 8:50 PM AEDT
Flight conditions Marginal Visual Meteorological Conditions
Winds
Wind direction North-Northeast (30°)
Wind speed 8 mph
Visibility 6.2 mi.
Present weather light rain showers
Sky condition
Ceiling 1,000 ft. broken clouds
Cloud layer few clouds 800 ft.
Cloud layer broken clouds 1,000 ft.
Cloud layer broken clouds 2,200 ft.
Temperature 79°F
Dewpoint 73°F
Altimeter 29.88 in.Hg
Derived measurements
Relative humidity 84%
Heat index 79°F
Density altitude 1700 ft.
METAR YSSY 250930Z 03007KT 9999 FEW008 BKN022 26/23 Q1012 TEMPO 0930/1230 6000 -SHRA BKN010

Settings

Location code

InnerDrive.Weather 4.0.6770.0 Release CLR 4.0.30319.42000
Copyright ©2018 Inner Drive Technology. All rights reserved. Portions Copyright ©1986-2018 David Braverman.

Find weather

Site navigation


Skip Navigation Links

Place info

Page info

PayPal - The safer, easier way to pay online!

Return home.

Copyright ©2020 Inner Drive Technology. Purveyors of fine, hand-crafted computer software. Page printed 2020-01-25T09:50:16 UTC.